Time;durP1;ratioP1;P1;durP2;ratioP2;P2;SDS_P1;SDS_P2;PMS_P1;PMS_P2;Temp;Humidity;BMP_temperature;BMP_pressure;BME280_temperature;BME280_humidity;BME280_pressure;Samples;Min_cycle;Max_cycle;Signal;HPM_P1;HPM_P2
2021/05/17 00:00:56;;;;;;;;;;;;;;;21.77;30.74;96998.69;5121342;28;713;-75
2021/05/17 00:03:21;;;;;;;;;;;;;;;21.90;30.76;96997.75;5121382;28;1909;-75
2021/05/17 00:05:47;;;;;;;;;;;;;;;21.83;30.80;96996.81;5103571;28;920;-75
2021/05/17 00:08:13;;;;;;;;;;;;;;;21.83;30.91;96991.16;5120944;28;829;-75
2021/05/17 00:10:38;;;;;;;;;;;;;;;22.01;30.42;96989.56;5121489;28;958;-75
2021/05/17 00:13:04;;;;;;;;;;;;;;;21.88;31.03;96991.78;5121334;28;698;-75
2021/05/17 00:15:29;;;;;;;;;;;;;;;21.92;30.99;96981.09;5121086;28;818;-75
2021/05/17 00:17:55;;;;;;;;;;;;;;;22.03;30.83;96975.75;5121069;28;594;-75
2021/05/17 00:20:21;;;;;;;;;;;;;;;22.06;30.75;96969.13;5121232;28;642;-75
2021/05/17 00:22:46;;;;;;;;;;;;;;;22.11;30.77;96974.19;5121589;28;590;-75
2021/05/17 00:25:12;;;;;;;;;;;;;;;21.90;31.39;96975.09;5120599;28;1971;-75
2021/05/17 00:27:37;;;;;;;;;;;;;;;21.91;31.60;96973.84;5103072;28;886;-75
2021/05/17 00:30:04;;;;;;;;;;;;;;;21.90;31.43;96984.38;5120908;28;996;-75
2021/05/17 00:32:29;;;;;;;;;;;;;;;22.02;31.17;96979.81;5120869;28;630;-75
2021/05/17 00:34:55;;;;;;;;;;;;;;;21.81;31.80;96981.53;5121182;28;671;-75
2021/05/17 00:37:20;;;;;;;;;;;;;;;21.92;31.46;96986.75;5120898;28;678;-75
2021/05/17 00:39:46;;;;;;;;;;;;;;;21.84;31.52;96975.72;5120435;28;852;-75
2021/05/17 00:42:11;;;;;;;;;;;;;;;21.78;31.42;96983.28;5120486;28;904;-75
2021/05/17 00:44:37;;;;;;;;;;;;;;;21.90;31.24;96980.75;5103171;28;1981;-75
2021/05/17 00:47:03;;;;;;;;;;;;;;;21.84;31.18;96987.06;5121036;28;594;-75
2021/05/17 00:49:28;;;;;;;;;;;;;;;21.72;31.52;96990.06;5120925;28;626;-75
2021/05/17 00:51:54;;;;;;;;;;;;;;;21.75;31.53;96975.72;5120855;28;817;-75
2021/05/17 00:54:19;;;;;;;;;;;;;;;21.76;31.37;96985.81;5120356;28;947;-75
2021/05/17 00:56:45;;;;;;;;;;;;;;;21.83;30.92;96991.16;5120873;28;816;-75
2021/05/17 00:59:11;;;;;;;;;;;;;;;21.75;31.30;96991.91;5120778;28;1102;-75
2021/05/17 01:01:36;;;;;;;;;;;;;;;21.64;31.37;97000.09;5103546;28;1222;-75
2021/05/17 01:04:02;;;;;;;;;;;;;;;21.73;30.92;97000.91;5102783;28;1909;-75
2021/05/17 01:06:33;;;;;;;;;;;;;;;21.83;30.96;96993.19;5120178;28;860;-73
2021/05/17 01:09:04;;;;;;;;;;;;;;;21.79;30.80;96996.19;5085865;28;1181;-74
2021/05/17 01:11:32;;;;;;;;;;;;;;;21.74;31.00;96985.47;5120592;28;980;-75
2021/05/17 01:14:03;;;;;;;;;;;;;;;21.68;31.13;96984.53;5120351;28;623;-75
2021/05/17 01:16:29;;;;;;;;;;;;;;;21.75;31.02;96972.88;5120408;28;685;-75
2021/05/17 01:18:54;;;;;;;;;;;;;;;21.73;30.85;96983.91;5120366;28;854;-75
2021/05/17 01:21:22;;;;;;;;;;;;;;;21.87;30.52;96978.91;5120134;28;813;-75
2021/05/17 01:23:55;;;;;;;;;;;;;;;21.73;30.64;96975.41;5102964;28;1898;-75
2021/05/17 01:26:24;;;;;;;;;;;;;;;21.96;30.48;96973.22;5120307;28;685;-75
2021/05/17 01:28:51;;;;;;;;;;;;;;;21.92;30.69;96981.09;5120673;28;638;-75
2021/05/17 01:31:18;;;;;;;;;;;;;;;21.78;31.00;96977.63;5102541;28;1298;-75
2021/05/17 01:33:44;;;;;;;;;;;;;;;21.81;31.12;96976.69;5102577;28;1117;-75
2021/05/17 01:36:10;;;;;;;;;;;;;;;21.87;31.10;96984.56;5120598;28;918;-75
2021/05/17 01:38:38;;;;;;;;;;;;;;;21.72;31.53;96990.84;5089968;28;907;-75
2021/05/17 01:41:08;;;;;;;;;;;;;;;21.91;31.22;96973.84;5124259;28;807;-75
2021/05/17 01:43:34;;;;;;;;;;;;;;;21.79;31.24;96973.53;5124224;28;1898;-75
2021/05/17 01:46:00;;;;;;;;;;;;;;;21.76;31.51;96971.66;5106207;28;1055;-75
2021/05/17 01:48:26;;;;;;;;;;;;;;;21.88;31.16;96974.78;5089455;28;1265;-75
2021/05/17 01:50:52;;;;;;;;;;;;;;;21.80;31.62;96980.75;5106643;28;845;-75
2021/05/17 01:53:17;;;;;;;;;;;;;;;21.81;31.50;96982.34;5124202;28;610;-75
2021/05/17 01:55:43;;;;;;;;;;;;;;;21.92;31.18;96986.75;5124065;28;768;-75
2021/05/17 01:58:22;;;;;;;;;;;;;;;21.87;31.35;96984.56;5124031;28;1004;-75
2021/05/17 02:00:51;;;;;;;;;;;;;;;21.80;31.27;96985.63;5106287;28;1272;-75
2021/05/17 02:03:17;;;;;;;;;;;;;;;21.88;31.17;96989.75;5123485;28;1898;-75
2021/05/17 02:05:46;;;;;;;;;;;;;;;21.82;31.30;96975.44;5123420;28;935;-75
2021/05/17 02:08:12;;;;;;;;;;;;;;;21.97;31.08;96981.25;5123559;28;872;-75
2021/05/17 02:10:39;;;;;;;;;;;;;;;19.94;31.87;96692.88;5105856;28;1220;-75
2021/05/17 02:13:05;;;;;;;;;;;;;;;21.81;31.48;96973.84;5106702;28;1106;-75
2021/05/17 02:15:30;;;;;;;;;;;;;;;21.82;31.57;96972.59;5088810;28;1270;-75
2021/05/17 02:18:01;;;;;;;;;;;;;;;21.91;31.56;96985.16;5105340;28;1206;-75
2021/05/17 02:20:29;;;;;;;;;;;;;;;21.97;31.51;96986.13;5123198;28;818;-75
2021/05/17 02:22:55;;;;;;;;;;;;;;;21.83;31.17;96985.50;5106072;28;925;-75
2021/05/17 02:25:22;;;;;;;;;;;;;;;21.89;31.12;96987.69;5105756;28;793;-75
2021/05/17 02:27:51;;;;;;;;;;;;;;;21.85;31.12;96988.63;5105820;28;1402;-75
2021/05/17 02:30:17;;;;;;;;;;;;;;;21.84;31.08;96994.75;5122890;28;1086;-75
2021/05/17 02:32:42;;;;;;;;;;;;;;;21.83;31.07;96999.66;5105589;28;1245;-75
2021/05/17 02:35:11;;;;;;;;;;;;;;;21.96;30.91;97010.03;5123014;28;982;-75
2021/05/17 02:37:37;;;;;;;;;;;;;;;21.98;30.82;97001.88;5088746;28;938;-75
2021/05/17 02:40:04;;;;;;;;;;;;;;;21.91;30.89;97002.94;5105720;28;1182;-75
2021/05/17 02:42:33;;;;;;;;;;;;;;;21.84;31.02;96987.06;5105707;28;1097;-75
2021/05/17 02:44:58;;;;;;;;;;;;;;;22.06;30.63;96991.78;5105032;28;1976;-75
2021/05/17 02:47:25;;;;;;;;;;;;;;;22.05;30.63;96990.22;5122840;28;886;-75
2021/05/17 02:49:50;;;;;;;;;;;;;;;21.84;31.08;96998.38;5122915;28;921;-75
2021/05/17 02:52:16;;;;;;;;;;;;;;;21.90;30.71;96989.25;5123039;28;598;-76
2021/05/17 02:54:42;;;;;;;;;;;;;;;22.02;30.78;96999.63;5088467;28;1285;-75
2021/05/17 02:57:08;;;;;;;;;;;;;;;21.90;30.65;97000.59;5123134;28;630;-75
2021/05/17 03:00:01;;;;;;;;;;;;;;;21.82;30.81;96989.59;5122179;28;999;-75
2021/05/17 03:02:29;;;;;;;;;;;;;;;22.07;30.46;97001.84;5104766;28;865;-75
2021/05/17 03:04:55;;;;;;;;;;;;;;;21.94;30.38;97006.88;5088282;28;1986;-75
2021/05/17 03:07:21;;;;;;;;;;;;;;;21.96;30.48;97004.38;5104353;28;861;-75
2021/05/17 03:09:47;;;;;;;;;;;;;;;21.79;30.84;97001.84;5104689;28;1199;-75
2021/05/17 03:12:13;;;;;;;;;;;;;;;21.89;30.56;97016.00;5104885;28;661;-75
2021/05/17 03:14:42;;;;;;;;;;;;;;;21.95;30.42;97014.91;5104377;28;823;-75
2021/05/17 03:17:09;;;;;;;;;;;;;;;21.74;30.85;97010.97;5121895;28;901;-75
2021/05/17 03:19:36;;;;;;;;;;;;;;;21.87;30.99;97008.00;5122393;28;815;-75
2021/05/17 03:22:02;;;;;;;;;;;;;;;21.84;31.02;97006.88;5104646;28;603;-76
2021/05/17 03:24:28;;;;;;;;;;;;;;;21.93;30.89;97006.09;5103845;28;1984;-73
2021/05/17 03:26:54;;;;;;;;;;;;;;;22.02;30.57;97019.47;5122054;28;650;-75
2021/05/17 03:29:19;;;;;;;;;;;;;;;21.84;30.93;97009.72;5122009;28;1017;-75
2021/05/17 03:31:45;;;;;;;;;;;;;;;22.00;30.96;97010.66;5121658;28;785;-74
2021/05/17 03:34:10;;;;;;;;;;;;;;;22.04;31.01;97011.31;5121827;28;827;-75
2021/05/17 03:36:38;;;;;;;;;;;;;;;22.01;30.79;97007.34;5122038;28;685;-75
2021/05/17 03:39:04;;;;;;;;;;;;;;;21.95;31.15;97003.59;5121929;28;658;-75
2021/05/17 03:41:29;;;;;;;;;;;;;;;21.90;31.06;97017.59;5122096;28;721;-75
2021/05/17 03:43:55;;;;;;;;;;;;;;;21.88;31.35;97014.44;5121330;28;1901;-76
2021/05/17 03:46:20;;;;;;;;;;;;;;;21.89;31.14;97007.53;5121545;28;894;-75
2021/05/17 03:48:46;;;;;;;;;;;;;;;21.91;30.93;97019.94;5121551;28;937;-75
2021/05/17 03:51:11;;;;;;;;;;;;;;;21.83;31.20;97025.13;5121739;28;657;-76
2021/05/17 03:53:37;;;;;;;;;;;;;;;21.91;31.04;97019.94;5121810;28;693;-75
2021/05/17 03:56:02;;;;;;;;;;;;;;;21.90;31.13;97018.38;5121630;28;602;-75
2021/05/17 03:58:28;;;;;;;;;;;;;;;21.88;30.97;97031.44;5120943;28;1127;-75
2021/05/17 04:00:56;;;;;;;;;;;;;;;21.81;31.21;97039.00;5121339;28;721;-75
2021/05/17 04:03:22;;;;;;;;;;;;;;;21.84;30.92;97043.69;5121624;28;1982;-75
2021/05/17 04:13:59;;;;;;;;;;;;;;;21.97;31.02;97034.28;5120644;28;1597;-75
2021/05/17 04:16:25;;;;;;;;;;;;;;;21.99;31.07;97043.09;5121209;28;1550;-76
2021/05/17 04:18:51;;;;;;;;;;;;;;;21.81;31.29;97044.66;5121118;28;990;-76
2021/05/17 04:21:17;;;;;;;;;;;;;;;21.90;31.45;97045.91;5120872;28;853;-76
2021/05/17 04:23:42;;;;;;;;;;;;;;;21.88;31.32;97037.88;5121133;28;1971;-75
2021/05/17 04:26:08;;;;;;;;;;;;;;;21.89;31.19;97041.50;5121119;28;683;-76
2021/05/17 04:28:33;;;;;;;;;;;;;;;21.93;31.42;97045.75;5121037;28;672;-75
2021/05/17 04:30:59;;;;;;;;;;;;;;;21.88;31.48;97054.09;5121171;28;704;-76
2021/05/17 04:33:24;;;;;;;;;;;;;;;21.85;31.26;97050.94;5120731;28;828;-76
2021/05/17 04:35:50;;;;;;;;;;;;;;;21.96;31.22;97039.13;5120715;28;873;-76
2021/05/17 04:38:15;;;;;;;;;;;;;;;21.96;31.53;97039.13;5121057;28;982;-76
2021/05/17 04:40:43;;;;;;;;;;;;;;;21.95;31.32;97054.56;5119795;28;1531;-73
2021/05/17 04:43:08;;;;;;;;;;;;;;;21.97;31.51;97052.06;5119510;28;1906;-75
2021/05/17 04:45:34;;;;;;;;;;;;;;;22.01;31.54;97047.00;5121110;28;664;-75
2021/05/17 04:47:59;;;;;;;;;;;;;;;22.06;31.10;97059.75;5120132;28;1554;-75
2021/05/17 04:50:25;;;;;;;;;;;;;;;21.96;31.38;97044.81;5100239;28;886;-75
2021/05/17 04:52:50;;;;;;;;;;;;;;;21.92;31.42;97054.72;5100690;28;833;-75
2021/05/17 04:55:16;;;;;;;;;;;;;;;22.06;31.23;97048.44;5082840;28;839;-74
2021/05/17 04:57:41;;;;;;;;;;;;;;;22.15;31.22;97048.47;5100790;28;718;-75
2021/05/17 05:00:07;;;;;;;;;;;;;;;21.87;31.45;97058.19;5114129;28;1515;-76
2021/05/17 05:02:33;;;;;;;;;;;;;;;21.96;31.35;97061.00;5120409;28;928;-75
2021/05/17 05:04:58;;;;;;;;;;;;;;;21.98;31.20;97064.97;5120024;28;1966;-75
2021/05/17 05:07:24;;;;;;;;;;;;;;;21.92;31.38;97066.06;5116379;28;937;-75
2021/05/17 05:09:49;;;;;;;;;;;;;;;22.04;31.46;97074.41;5100332;28;685;-75
2021/05/17 05:12:14;;;;;;;;;;;;;;;22.14;30.89;97065.94;5110582;28;1710;-76
2021/05/17 05:14:46;;;;;;;;;;;;;;;22.00;31.21;97072.97;5124878;28;613;-76
2021/05/17 05:17:11;;;;;;;;;;;;;;;22.02;31.38;97081.78;5124211;28;1472;-76
2021/05/17 05:19:37;;;;;;;;;;;;;;;21.96;31.18;97078.00;5124466;28;1491;-76
2021/05/17 05:22:02;;;;;;;;;;;;;;;21.96;31.28;97083.66;5122687;28;1439;-75
2021/05/17 05:24:28;;;;;;;;;;;;;;;21.85;31.25;97079.25;5123458;28;1957;-75
2021/05/17 05:34:49;;;;;;;;;;;;;;;21.76;31.15;97076.41;5109161;28;876;-75
2021/05/17 05:37:14;;;;;;;;;;;;;;;21.76;30.88;97076.41;5123861;28;1478;-75
2021/05/17 05:39:40;;;;;;;;;;;;;;;21.82;31.08;97080.19;5117785;28;1561;-75
2021/05/17 05:42:05;;;;;;;;;;;;;;;21.85;30.59;97087.75;5120010;28;761;-75
2021/05/17 05:44:32;;;;;;;;;;;;;;;21.87;30.49;97089.34;5139708;27;1961;-75
2021/05/17 05:46:57;;;;;;;;;;;;;;;21.87;30.26;97080.84;5123872;28;916;-75
2021/05/17 05:49:24;;;;;;;;;;;;;;;21.91;30.39;97082.25;5123802;28;789;-76
2021/05/17 05:51:50;;;;;;;;;;;;;;;21.82;30.40;97091.53;5123941;28;1014;-75
2021/05/17 05:54:16;;;;;;;;;;;;;;;21.82;30.41;97085.88;5124111;28;669;-74
2021/05/17 05:56:41;;;;;;;;;;;;;;;21.87;30.43;97092.16;5117631;28;1613;-75
2021/05/17 05:59:07;;;;;;;;;;;;;;;21.88;30.39;97094.53;5103296;28;1122;-75
2021/05/17 06:01:32;;;;;;;;;;;;;;;21.76;30.36;97099.06;5103328;28;870;-75
2021/05/17 06:03:58;;;;;;;;;;;;;;;21.79;30.48;97092.44;5105820;28;1964;-75
2021/05/17 06:06:23;;;;;;;;;;;;;;;21.84;30.04;97094.66;5123593;28;1605;-76
2021/05/17 06:08:49;;;;;;;;;;;;;;;21.75;30.04;97094.63;5123876;28;694;-76
2021/05/17 06:11:14;;;;;;;;;;;;;;;21.72;29.89;97092.75;5123546;28;1618;-75
2021/05/17 06:13:40;;;;;;;;;;;;;;;21.82;29.81;97091.53;5122698;28;1679;-75
2021/05/17 06:16:06;;;;;;;;;;;;;;;21.78;29.73;97090.88;5105571;28;906;-76
2021/05/17 06:18:31;;;;;;;;;;;;;;;21.70;29.90;97095.25;5123207;28;802;-76
2021/05/17 06:20:57;;;;;;;;;;;;;;;21.96;29.28;97086.50;5123475;28;896;-75
2021/05/17 06:23:22;;;;;;;;;;;;;;;21.97;29.37;97091.72;5123007;28;1955;-76
2021/05/17 06:25:49;;;;;;;;;;;;;;;21.96;29.40;97100.66;5105379;28;1536;-76
2021/05/17 06:28:19;;;;;;;;;;;;;;;21.81;29.38;97092.78;5123059;28;1578;-75
2021/05/17 06:30:59;;;;;;;;;;;;;;;21.66;29.56;97086.16;5123088;28;1021;-76
2021/05/17 06:33:24;;;;;;;;;;;;;;;21.68;29.39;97086.44;5123354;28;945;-75
2021/05/17 06:35:54;;;;;;;;;;;;;;;21.69;29.36;97087.25;5137989;27;1624;-75
2021/05/17 06:38:19;;;;;;;;;;;;;;;21.64;29.46;97085.81;5123884;28;661;-75
2021/05/17 06:40:45;;;;;;;;;;;;;;;21.70;29.43;97089.59;5123141;28;708;-76
2021/05/17 06:43:10;;;;;;;;;;;;;;;21.76;29.32;97075.59;5122923;28;1893;-76
2021/05/17 06:45:36;;;;;;;;;;;;;;;21.67;29.33;97084.88;5122208;28;1629;-76
2021/05/17 06:48:02;;;;;;;;;;;;;;;21.71;29.56;97084.72;5122436;28;1384;-75
2021/05/17 06:50:27;;;;;;;;;;;;;;;21.89;29.15;97079.09;5122877;28;829;-77
2021/05/17 06:52:53;;;;;;;;;;;;;;;21.72;29.51;97083.47;5122833;28;1589;-76
2021/05/17 06:55:22;;;;;;;;;;;;;;;21.75;29.14;97076.88;5122824;28;640;-76
2021/05/17 07:00:29;;;;;;;;;;;;;;;21.73;29.08;97079.38;5138005;27;1114;-76
2021/05/17 07:02:58;;;;;;;;;;;;;;;21.69;29.24;97078.75;5122353;28;928;-75
2021/05/17 07:05:24;;;;;;;;;;;;;;;21.77;28.88;97071.53;5138689;27;1971;-76
2021/05/17 07:13:08;;;;;;;;;;;;;;;21.67;29.40;97070.72;5122156;28;1620;-76
2021/05/17 07:15:34;;;;;;;;;;;;;;;21.52;29.31;97073.34;5122306;28;968;-76
2021/05/17 07:17:59;;;;;;;;;;;;;;;21.49;29.39;97076.31;5121872;28;1602;-75
2021/05/17 07:20:32;;;;;;;;;;;;;;;21.58;29.35;97079.19;5122439;28;1472;-75
2021/05/17 07:25:45;;;;;;;;;;;;;;;21.58;29.41;97065.03;5122272;28;656;-75
2021/05/17 07:28:10;;;;;;;;;;;;;;;21.56;29.41;97061.91;5121912;28;1510;-76
2021/05/17 07:30:36;;;;;;;;;;;;;;;21.63;29.30;97066.47;5121820;28;1562;-76
2021/05/17 07:33:02;;;;;;;;;;;;;;;21.55;29.54;97060.28;5121231;28;1527;-75
2021/05/17 07:35:27;;;;;;;;;;;;;;;21.63;28.98;97072.13;5102892;28;1488;-75
2021/05/17 07:37:53;;;;;;;;;;;;;;;21.68;29.04;97063.81;5122200;28;830;-75
2021/05/17 07:40:18;;;;;;;;;;;;;;;21.68;29.35;97069.47;5121921;28;654;-76
2021/05/17 07:42:43;;;;;;;;;;;;;;;21.62;29.30;97065.69;5121942;28;705;-75
2021/05/17 07:45:09;;;;;;;;;;;;;;;21.58;29.60;97060.16;5121365;28;1897;-75
2021/05/17 07:47:35;;;;;;;;;;;;;;;21.76;29.14;97070.75;5121605;28;1483;-75
2021/05/17 07:50:00;;;;;;;;;;;;;;;21.73;29.26;97063.19;5121701;28;838;-76
2021/05/17 07:52:25;;;;;;;;;;;;;;;21.68;29.23;97063.81;5122055;28;670;-75
2021/05/17 07:54:51;;;;;;;;;;;;;;;21.68;29.07;97072.28;5121805;28;630;-75
2021/05/17 07:57:16;;;;;;;;;;;;;;;21.57;29.50;97074.78;5121530;28;1590;-76
2021/05/17 07:59:42;;;;;;;;;;;;;;;21.56;29.50;97067.56;5120990;28;1460;-76
2021/05/17 08:02:07;;;;;;;;;;;;;;;21.69;29.49;97071.03;5121683;28;915;-75
2021/05/17 08:04:33;;;;;;;;;;;;;;;21.77;29.00;97072.31;5121622;28;1905;-75
2021/05/17 08:06:58;;;;;;;;;;;;;;;21.81;29.56;97064.47;5121112;28;1530;-76
2021/05/17 08:09:24;;;;;;;;;;;;;;;21.75;29.86;97057.03;5121509;28;633;-75
2021/05/17 08:11:50;;;;;;;;;;;;;;;21.74;30.03;97067.59;5121309;28;670;-76
2021/05/17 08:14:17;;;;;;;;;;;;;;;21.63;30.13;97067.25;5121402;28;826;-75
2021/05/17 08:16:42;;;;;;;;;;;;;;;21.63;30.41;97060.81;5120857;28;1475;-76
2021/05/17 08:19:08;;;;;;;;;;;;;;;21.73;30.09;97070.91;5103494;28;825;-76
2021/05/17 08:21:33;;;;;;;;;;;;;;;21.86;29.78;97071.53;5121227;28;593;-75
2021/05/17 08:23:59;;;;;;;;;;;;;;;21.79;30.09;97063.34;5121216;28;1898;-76
2021/05/17 08:26:25;;;;;;;;;;;;;;;21.76;30.21;97070.75;5121303;28;641;-76
2021/05/17 08:28:50;;;;;;;;;;;;;;;21.80;30.15;97065.69;5120308;28;1511;-75
2021/05/17 08:31:18;;;;;;;;;;;;;;;21.73;30.01;97066.00;5120598;28;1483;-75
2021/05/17 08:33:44;;;;;;;;;;;;;;;21.93;29.88;97073.28;5120742;28;1444;-75
2021/05/17 08:36:10;;;;;;;;;;;;;;;21.81;29.87;97064.47;5120985;28;697;-75
2021/05/17 08:38:35;;;;;;;;;;;;;;;21.65;30.20;97064.72;5103325;28;642;-75
2021/05/17 08:41:01;;;;;;;;;;;;;;;21.70;30.24;97064.09;5103392;28;725;-75
2021/05/17 08:43:26;;;;;;;;;;;;;;;21.73;29.85;97074.50;5102336;28;1914;-74
2021/05/17 08:45:52;;;;;;;;;;;;;;;21.84;30.04;97066.34;5120081;28;1622;-74
2021/05/17 08:48:18;;;;;;;;;;;;;;;21.78;30.06;97073.91;5120854;28;994;-76
2021/05/17 08:50:43;;;;;;;;;;;;;;;21.73;30.13;97083.00;5102785;28;835;-76
2021/05/17 08:53:10;;;;;;;;;;;;;;;21.76;30.22;97070.75;5120736;28;650;-76
2021/05/17 08:55:35;;;;;;;;;;;;;;;21.82;30.04;97066.03;5120548;28;1586;-75
2021/05/17 08:58:01;;;;;;;;;;;;;;;22.03;29.48;97069.22;5120286;28;1471;-75
2021/05/17 09:00:26;;;;;;;;;;;;;;;21.75;30.04;97057.03;5120081;28;1463;-76
2021/05/17 09:02:53;;;;;;;;;;;;;;;21.81;29.78;97052.34;5102912;28;919;-75
2021/05/17 09:05:18;;;;;;;;;;;;;;;21.72;30.10;97053.13;5120681;28;1913;-75
2021/05/17 09:07:54;;;;;;;;;;;;;;;21.75;29.89;97046.50;5120925;28;598;-76
2021/05/17 09:10:21;;;;;;;;;;;;;;;21.71;29.96;97050.75;5120265;28;1634;-76
2021/05/17 09:12:59;;;;;;;;;;;;;;;21.67;30.04;97056.56;5119066;28;1413;-76
2021/05/17 09:15:37;;;;;;;;;;;;;;;21.68;29.86;97046.81;5102744;28;1196;-75
2021/05/17 09:18:04;;;;;;;;;;;;;;;21.73;29.64;97043.38;5120560;28;673;-76
2021/05/17 09:20:37;;;;;;;;;;;;;;;21.58;29.80;97039.56;5120780;28;602;-76
2021/05/17 09:23:11;;;;;;;;;;;;;;;21.59;29.83;97043.97;5120177;28;1667;-76
2021/05/17 09:25:37;;;;;;;;;;;;;;;21.64;29.77;97034.06;5120560;28;614;-76
2021/05/17 09:28:03;;;;;;;;;;;;;;;21.59;29.95;97027.75;5102501;28;1100;-75
2021/05/17 09:30:45;;;;;;;;;;;;;;;21.72;29.67;97030.47;5119859;28;1580;-76
2021/05/17 09:33:13;;;;;;;;;;;;;;;21.65;29.84;97036.41;5120112;28;1497;-76
2021/05/17 09:35:38;;;;;;;;;;;;;;;21.83;29.19;97030.78;5120155;28;1629;-76
2021/05/17 09:38:06;;;;;;;;;;;;;;;21.81;29.63;97038.16;5136780;28;661;-76
2021/05/17 09:40:32;;;;;;;;;;;;;;;21.69;29.41;97037.06;5120223;28;1557;-75
2021/05/17 09:43:08;;;;;;;;;;;;;;;21.77;29.34;97032.69;5101922;28;836;-76
2021/05/17 09:45:37;;;;;;;;;;;;;;;21.76;29.41;97036.78;5101901;28;1901;-76
2021/05/17 09:48:12;;;;;;;;;;;;;;;21.69;29.59;97025.72;5120093;28;1029;-76
2021/05/17 09:50:53;;;;;;;;;;;;;;;21.77;29.11;97032.69;5120250;28;1622;-75
2021/05/17 09:53:21;;;;;;;;;;;;;;;21.73;29.22;97025.59;5136296;28;849;-76
2021/05/17 09:55:46;;;;;;;;;;;;;;;21.65;29.72;97025.09;5120203;28;617;-75
2021/05/17 09:58:12;;;;;;;;;;;;;;;21.62;29.47;97020.38;5122136;28;964;-76
2021/05/17 10:00:38;;;;;;;;;;;;;;;21.68;29.21;97018.50;5139514;27;1527;-75
2021/05/17 10:03:03;;;;;;;;;;;;;;;21.77;29.31;97021.34;5123831;28;994;-75
2021/05/17 10:05:29;;;;;;;;;;;;;;;21.87;29.11;97013.66;5106186;28;1975;-75
2021/05/17 10:07:56;;;;;;;;;;;;;;;21.76;29.04;97018.97;5123971;28;623;-75
2021/05/17 10:10:23;;;;;;;;;;;;;;;21.64;29.19;97020.69;5105416;28;1618;-76
2021/05/17 10:12:49;;;;;;;;;;;;;;;21.62;29.23;97020.38;5123205;28;1448;-75
2021/05/17 10:15:15;;;;;;;;;;;;;;;21.73;29.06;97017.88;5121817;28;1561;-75
2021/05/17 10:17:40;;;;;;;;;;;;;;;21.71;29.06;97011.09;5123443;28;858;-75
2021/05/17 10:20:07;;;;;;;;;;;;;;;21.73;29.03;97006.56;5123538;28;672;-76
